Time;durP1;ratioP1;P1;durP2;ratioP2;P2;SDS_P1;SDS_P2;PMS_P1;PMS_P2;Temp;Humidity;BMP_temperature;BMP_pressure;BME280_temperature;BME280_humidity;BME280_pressure;Samples;Min_cycle;Max_cycle;Signal;HPM_P1;HPM_P2
2023/09/18 00:01:05;;;;;;;;;;;19.30;99.90;;;;;;4996209;28;19910;-68
2023/09/18 00:03:31;;;;;;;;;;;19.30;99.90;;;;;;5000776;28;20325;-68
2023/09/18 00:05:56;;;;;;;;;;;19.30;99.90;;;;;;4996504;28;19967;-68
2023/09/18 00:08:22;;;;;;;;;;;19.20;99.90;;;;;;4999348;28;20033;-69
2023/09/18 00:10:52;;;;;;;;;;;19.20;99.90;;;;;;4979711;28;19913;-68
2023/09/18 00:13:18;;;;;;;;;;;19.20;99.90;;;;;;4999054;28;19913;-68
2023/09/18 00:15:46;;;;;;;;;;;19.20;99.90;;;;;;5000521;28;19992;-68
2023/09/18 00:18:13;;;;;;;;;;;19.20;99.90;;;;;;4999908;28;19913;-69
2023/09/18 00:20:41;;;;;;;;;;;19.20;99.90;;;;;;4999399;28;21285;-69
2023/09/18 00:23:07;;;;;;;;;;;19.10;99.90;;;;;;4998417;28;19912;-69
2023/09/18 00:25:33;;;;;;;;;;;19.00;99.90;;;;;;5006024;28;19940;-69
2023/09/18 00:27:59;;;;;;;;;;;19.00;99.90;;;;;;5000325;28;19915;-69
2023/09/18 00:30:24;;;;;;;;;;;19.00;99.90;;;;;;4981821;28;19936;-68
2023/09/18 00:32:50;;;;;;;;;;;19.00;99.90;;;;;;4982194;28;20012;-68
2023/09/18 00:35:15;;;;;;;;;;;19.00;99.90;;;;;;4982611;28;19913;-68
2023/09/18 00:37:43;;;;;;;;;;;19.00;99.90;;;;;;4999870;28;20583;-68
2023/09/18 00:40:08;;;;;;;;;;;19.00;99.90;;;;;;5003474;28;19993;-68
2023/09/18 00:42:34;;;;;;;;;;;19.00;99.90;;;;;;4996955;28;19909;-69
2023/09/18 00:44:59;;;;;;;;;;;19.00;99.90;;;;;;5000670;28;19932;-68
2023/09/18 00:47:25;;;;;;;;;;;19.00;99.90;;;;;;5000841;28;19927;-68
2023/09/18 00:49:51;;;;;;;;;;;19.00;99.90;;;;;;4985096;28;19910;-68
2023/09/18 00:52:17;;;;;;;;;;;19.00;99.90;;;;;;5001492;28;19955;-68
2023/09/18 00:54:43;;;;;;;;;;;18.90;99.90;;;;;;5004188;28;19958;-68
2023/09/18 00:57:08;;;;;;;;;;;18.90;99.90;;;;;;4994185;28;19910;-68
2023/09/18 00:59:34;;;;;;;;;;;18.90;99.90;;;;;;5001681;28;20305;-68
2023/09/18 01:02:00;;;;;;;;;;;18.90;99.90;;;;;;5002417;28;20318;-68
2023/09/18 01:04:26;;;;;;;;;;;18.90;99.90;;;;;;4984869;28;20572;-68
2023/09/18 01:06:52;;;;;;;;;;;18.90;99.90;;;;;;4997839;28;20000;-68
2023/09/18 01:09:18;;;;;;;;;;;18.90;99.90;;;;;;5001575;28;20051;-68
2023/09/18 01:11:44;;;;;;;;;;;18.90;99.90;;;;;;4981174;28;20074;-68
2023/09/18 01:14:09;;;;;;;;;;;18.90;99.90;;;;;;4981936;28;20631;-69
2023/09/18 01:16:50;;;;;;;;;;;18.90;99.90;;;;;;4986921;28;20600;-68
2023/09/18 01:19:16;;;;;;;;;;;18.80;99.90;;;;;;5003269;28;20352;-68
2023/09/18 01:21:42;;;;;;;;;;;18.80;99.90;;;;;;4998142;28;19913;-69
2023/09/18 01:24:07;;;;;;;;;;;18.80;99.90;;;;;;4982945;28;20426;-69
2023/09/18 01:26:33;;;;;;;;;;;18.80;99.90;;;;;;4980960;28;19905;-69
2023/09/18 01:28:58;;;;;;;;;;;18.80;99.90;;;;;;5001017;28;20345;-68
2023/09/18 01:31:26;;;;;;;;;;;18.70;99.90;;;;;;4998956;28;19905;-68
2023/09/18 01:33:52;;;;;;;;;;;18.70;99.90;;;;;;5003674;28;19914;-69
2023/09/18 01:36:18;;;;;;;;;;;18.70;99.90;;;;;;4998668;28;19905;-68
2023/09/18 01:38:44;;;;;;;;;;;18.70;99.90;;;;;;4980666;28;19997;-68
2023/09/18 01:41:10;;;;;;;;;;;18.60;99.90;;;;;;4984148;28;20007;-69
2023/09/18 01:43:35;;;;;;;;;;;18.60;99.90;;;;;;4999264;28;19916;-68
2023/09/18 01:46:01;;;;;;;;;;;18.50;99.90;;;;;;4999781;28;19912;-68
2023/09/18 01:48:27;;;;;;;;;;;18.50;99.90;;;;;;4982737;28;19915;-68
2023/09/18 01:50:52;;;;;;;;;;;18.40;99.90;;;;;;4985274;28;20495;-68
2023/09/18 01:53:18;;;;;;;;;;;18.40;99.90;;;;;;4979543;28;19944;-69
2023/09/18 01:55:44;;;;;;;;;;;18.40;99.90;;;;;;4992779;28;19979;-69
2023/09/18 01:58:09;;;;;;;;;;;18.40;99.90;;;;;;4997711;28;19917;-69
2023/09/18 02:00:35;;;;;;;;;;;18.40;99.90;;;;;;4997717;28;20000;-68
2023/09/18 02:03:00;;;;;;;;;;;18.40;99.90;;;;;;4997848;28;20542;-69
2023/09/18 02:05:26;;;;;;;;;;;18.40;99.90;;;;;;4999385;28;19905;-68
2023/09/18 02:07:51;;;;;;;;;;;18.40;99.90;;;;;;4995744;28;19983;-69
2023/09/18 02:10:17;;;;;;;;;;;18.40;99.90;;;;;;4982061;28;20692;-69
2023/09/18 02:12:42;;;;;;;;;;;18.40;99.90;;;;;;4997404;28;19909;-68
2023/09/18 02:15:10;;;;;;;;;;;18.40;99.90;;;;;;4999375;28;20360;-68
2023/09/18 02:17:36;;;;;;;;;;;18.30;99.90;;;;;;5003572;28;20661;-68
2023/09/18 02:20:05;;;;;;;;;;;18.30;99.90;;;;;;4999661;28;19915;-68
2023/09/18 02:22:31;;;;;;;;;;;18.40;99.90;;;;;;4996560;28;20376;-68
2023/09/18 02:24:58;;;;;;;;;;;18.30;99.90;;;;;;4995309;28;19936;-68
2023/09/18 02:27:24;;;;;;;;;;;18.30;99.90;;;;;;4979622;28;20130;-68
2023/09/18 02:29:50;;;;;;;;;;;18.30;99.90;;;;;;4998221;28;19988;-68
2023/09/18 02:32:16;;;;;;;;;;;18.30;99.90;;;;;;4984901;28;19916;-69
2023/09/18 02:34:41;;;;;;;;;;;18.30;99.90;;;;;;4981146;28;19921;-68
2023/09/18 02:37:07;;;;;;;;;;;18.30;99.90;;;;;;4993748;28;20000;-68
2023/09/18 02:39:32;;;;;;;;;;;18.30;99.90;;;;;;5000193;28;19906;-68
2023/09/18 02:41:58;;;;;;;;;;;18.30;99.90;;;;;;4974311;28;20007;-68
2023/09/18 02:44:24;;;;;;;;;;;18.20;99.90;;;;;;4985142;28;19913;-69
2023/09/18 02:46:49;;;;;;;;;;;18.20;99.90;;;;;;4996961;28;19916;-69
2023/09/18 02:49:15;;;;;;;;;;;18.20;99.90;;;;;;5000660;28;19963;-68
2023/09/18 02:51:40;;;;;;;;;;;18.20;99.90;;;;;;4999155;28;19920;-69
2023/09/18 02:54:06;;;;;;;;;;;18.10;99.90;;;;;;4997641;28;20129;-69
2023/09/18 02:56:31;;;;;;;;;;;18.10;99.90;;;;;;4978450;28;19913;-68
2023/09/18 02:58:57;;;;;;;;;;;18.10;99.90;;;;;;4997046;28;20568;-69
2023/09/18 03:01:22;;;;;;;;;;;18.10;99.90;;;;;;4997658;28;19917;-69
2023/09/18 03:03:48;;;;;;;;;;;18.00;99.90;;;;;;5000513;28;20880;-68
2023/09/18 03:06:13;;;;;;;;;;;18.00;99.90;;;;;;4996014;28;19947;-68
2023/09/18 03:08:39;;;;;;;;;;;17.90;99.90;;;;;;4995417;28;19917;-69
2023/09/18 03:11:14;;;;;;;;;;;17.90;99.90;;;;;;5002495;28;20350;-69
2023/09/18 03:13:44;;;;;;;;;;;17.90;99.90;;;;;;4998063;28;19920;-68
2023/09/18 03:16:10;;;;;;;;;;;17.90;99.90;;;;;;5005105;28;21671;-68
2023/09/18 03:18:35;;;;;;;;;;;17.90;99.90;;;;;;5000752;28;20273;-69
2023/09/18 03:21:01;;;;;;;;;;;17.90;99.90;;;;;;5003070;28;19905;-68
2023/09/18 03:23:27;;;;;;;;;;;17.80;99.90;;;;;;5001081;28;19910;-69
2023/09/18 03:25:52;;;;;;;;;;;17.80;99.90;;;;;;5004998;28;19913;-68
2023/09/18 03:28:18;;;;;;;;;;;17.70;99.90;;;;;;5001321;28;21621;-68
2023/09/18 03:30:43;;;;;;;;;;;17.70;99.90;;;;;;4988261;28;20257;-68
2023/09/18 03:33:12;;;;;;;;;;;17.70;99.90;;;;;;5004891;28;19931;-68
2023/09/18 03:35:47;;;;;;;;;;;17.60;99.90;;;;;;5003802;28;19937;-68
2023/09/18 03:38:13;;;;;;;;;;;17.60;99.90;;;;;;5000446;28;19909;-68
2023/09/18 03:40:39;;;;;;;;;;;17.60;99.90;;;;;;4988674;28;20575;-68
2023/09/18 03:43:04;;;;;;;;;;;17.60;99.90;;;;;;4983519;28;19920;-68
2023/09/18 03:45:31;;;;;;;;;;;17.60;99.90;;;;;;4977998;28;20008;-69
2023/09/18 03:47:56;;;;;;;;;;;17.60;99.90;;;;;;5000055;28;19905;-68
2023/09/18 03:50:22;;;;;;;;;;;17.60;99.90;;;;;;5000938;28;20376;-69
2023/09/18 03:52:47;;;;;;;;;;;17.60;99.90;;;;;;4995387;28;19956;-68
2023/09/18 03:55:13;;;;;;;;;;;17.60;99.90;;;;;;5005697;28;20111;-69
2023/09/18 03:57:39;;;;;;;;;;;17.60;99.90;;;;;;5000582;28;20380;-68
2023/09/18 04:00:05;;;;;;;;;;;17.60;99.90;;;;;;5002040;28;19906;-68
2023/09/18 04:02:30;;;;;;;;;;;17.60;99.90;;;;;;4999504;28;19958;-73
2023/09/18 04:04:56;;;;;;;;;;;17.60;99.90;;;;;;4985059;28;19913;-72
2023/09/18 04:07:21;;;;;;;;;;;17.60;99.90;;;;;;4997361;28;20345;-72
2023/09/18 04:09:47;;;;;;;;;;;17.50;99.90;;;;;;5000314;28;21251;-72
2023/09/18 04:12:12;;;;;;;;;;;17.50;99.90;;;;;;4999436;28;20015;-70
2023/09/18 04:14:38;;;;;;;;;;;17.60;99.90;;;;;;5005269;28;20355;-71
2023/09/18 04:17:04;;;;;;;;;;;17.50;99.90;;;;;;5002300;28;20431;-71
2023/09/18 04:19:30;;;;;;;;;;;17.50;99.90;;;;;;5000363;28;19912;-72
2023/09/18 04:21:56;;;;;;;;;;;17.40;99.90;;;;;;5000898;28;19909;-71
2023/09/18 04:24:21;;;;;;;;;;;17.40;99.90;;;;;;5001993;28;20296;-71
2023/09/18 04:26:47;;;;;;;;;;;17.40;99.90;;;;;;5001444;28;20035;-71
2023/09/18 04:29:13;;;;;;;;;;;17.40;99.90;;;;;;5001628;28;19928;-71
2023/09/18 04:31:38;;;;;;;;;;;17.40;99.90;;;;;;5001481;28;20523;-70
2023/09/18 04:34:04;;;;;;;;;;;17.40;99.90;;;;;;4983210;28;19921;-70
2023/09/18 04:36:30;;;;;;;;;;;17.40;99.90;;;;;;4982810;28;19912;-69
2023/09/18 04:38:55;;;;;;;;;;;17.40;99.90;;;;;;5004071;28;20587;-70
2023/09/18 04:41:21;;;;;;;;;;;17.40;99.90;;;;;;4981072;28;19917;-69
2023/09/18 04:43:46;;;;;;;;;;;17.50;99.90;;;;;;4997902;28;20956;-69
2023/09/18 04:46:12;;;;;;;;;;;17.50;99.90;;;;;;5002147;28;20006;-69
2023/09/18 04:48:38;;;;;;;;;;;17.50;99.90;;;;;;4999412;28;19917;-69
2023/09/18 04:51:03;;;;;;;;;;;17.60;99.90;;;;;;5004648;28;20266;-69
2023/09/18 04:53:29;;;;;;;;;;;17.70;99.90;;;;;;5001119;28;19916;-69
2023/09/18 04:55:55;;;;;;;;;;;17.80;99.90;;;;;;5003993;28;19909;-70
2023/09/18 04:58:21;;;;;;;;;;;17.90;99.90;;;;;;4978060;28;20989;-70
2023/09/18 05:00:58;;;;;;;;;;;18.00;99.90;;;;;;4983048;28;20560;-70
2023/09/18 05:03:24;;;;;;;;;;;18.10;99.90;;;;;;5000429;28;19963;-71
2023/09/18 05:05:49;;;;;;;;;;;18.20;99.90;;;;;;5003440;28;19917;-71
2023/09/18 05:08:15;;;;;;;;;;;18.30;99.90;;;;;;5000029;28;20356;-71
2023/09/18 05:10:40;;;;;;;;;;;18.70;99.90;;;;;;4999801;28;20334;-72
2023/09/18 05:13:07;;;;;;;;;;;18.80;99.90;;;;;;4999447;28;19905;-71
2023/09/18 05:15:33;;;;;;;;;;;19.00;99.90;;;;;;5002197;28;20368;-71
2023/09/18 05:17:59;;;;;;;;;;;19.20;99.90;;;;;;4985296;28;20267;-71
2023/09/18 05:20:25;;;;;;;;;;;19.40;99.90;;;;;;5000454;28;19916;-71
2023/09/18 05:22:54;;;;;;;;;;;19.80;99.90;;;;;;4997424;28;20356;-68
2023/09/18 05:25:24;;;;;;;;;;;20.10;99.90;;;;;;5003249;28;20379;-70
2023/09/18 05:27:55;;;;;;;;;;;20.30;99.90;;;;;;5000686;28;19920;-70
2023/09/18 05:30:25;;;;;;;;;;;20.40;99.90;;;;;;4982594;28;20695;-70
2023/09/18 05:32:51;;;;;;;;;;;20.50;99.90;;;;;;4997114;28;19913;-69
2023/09/18 05:35:17;;;;;;;;;;;20.50;99.90;;;;;;5007031;28;19917;-76
2023/09/18 05:37:43;;;;;;;;;;;20.70;99.90;;;;;;4983802;28;20280;-77
2023/09/18 05:40:10;;;;;;;;;;;20.80;99.90;;;;;;5002648;28;19940;-76
2023/09/18 05:42:37;;;;;;;;;;;20.90;99.90;;;;;;4984175;28;19971;-76
2023/09/18 05:45:04;;;;;;;;;;;21.20;99.90;;;;;;4997297;28;19909;-77
2023/09/18 05:47:33;;;;;;;;;;;21.70;99.90;;;;;;4979437;28;19906;-76
2023/09/18 05:49:58;;;;;;;;;;;21.90;99.90;;;;;;4989453;28;19909;-76
2023/09/18 05:52:25;;;;;;;;;;;22.10;99.90;;;;;;5002398;28;19906;-76
2023/09/18 05:54:50;;;;;;;;;;;22.10;99.90;;;;;;5000844;28;19916;-77
2023/09/18 05:57:16;;;;;;;;;;;22.60;99.90;;;;;;5004109;28;20478;-78
2023/09/18 05:59:48;;;;;;;;;;;22.70;99.90;;;;;;4999474;28;20562;-76
2023/09/18 06:02:16;;;;;;;;;;;23.20;99.90;;;;;;5004847;28;19909;-76
2023/09/18 06:04:42;;;;;;;;;;;23.40;99.90;;;;;;4999841;28;20011;-77
2023/09/18 06:07:07;;;;;;;;;;;23.40;99.90;;;;;;5001924;28;20988;-77
2023/09/18 06:09:33;;;;;;;;;;;23.40;99.90;;;;;;4999720;28;19913;-77
2023/09/18 06:12:00;;;;;;;;;;;23.80;99.90;;;;;;4984821;28;19956;-77
2023/09/18 06:14:25;;;;;;;;;;;24.10;99.90;;;;;;4997125;28;19905;-78
2023/09/18 06:16:51;;;;;;;;;;;24.80;99.90;;;;;;4984766;28;20324;-77
2023/09/18 06:19:19;;;;;;;;;;;25.30;99.90;;;;;;5002191;28;19909;-77
2023/09/18 06:21:45;;;;;;;;;;;25.40;99.90;;;;;;5000015;28;19916;-77
2023/09/18 06:24:10;;;;;;;;;;;25.70;99.90;;;;;;5002401;28;19912;-77
2023/09/18 06:26:37;;;;;;;;;;;26.20;99.90;;;;;;4998372;28;19909;-77
2023/09/18 06:29:04;;;;;;;;;;;26.70;99.90;;;;;;5001031;28;19962;-80
2023/09/18 06:31:31;;;;;;;;;;;27.40;99.90;;;;;;4999190;28;20500;-77
2023/09/18 06:33:56;;;;;;;;;;;27.80;99.90;;;;;;5000561;28;19913;-79
2023/09/18 06:36:22;;;;;;;;;;;28.40;99.90;;;;;;4983799;28;19921;-78
2023/09/18 06:38:47;;;;;;;;;;;29.10;99.90;;;;;;5001241;28;19963;-77
2023/09/18 06:41:13;;;;;;;;;;;29.30;99.30;;;;;;4998419;28;20565;-77
2023/09/18 06:43:39;;;;;;;;;;;29.40;98.90;;;;;;5002042;28;20635;-77
2023/09/18 06:46:06;;;;;;;;;;;29.60;98.70;;;;;;4978253;28;19944;-76
2023/09/18 06:48:33;;;;;;;;;;;29.90;98.10;;;;;;5001461;28;19917;-78
2023/09/18 06:51:00;;;;;;;;;;;30.60;97.20;;;;;;4999286;28;19914;-81
2023/09/18 06:53:27;;;;;;;;;;;31.10;95.90;;;;;;4986171;28;20139;-80
2023/09/18 06:55:53;;;;;;;;;;;31.30;95.00;;;;;;5001705;28;19916;-78
2023/09/18 06:58:21;;;;;;;;;;;31.50;94.50;;;;;;4981724;28;19909;-77
2023/09/18 07:00:47;;;;;;;;;;;31.60;94.20;;;;;;4981387;28;19911;-77
2023/09/18 07:03:14;;;;;;;;;;;30.80;94.80;;;;;;5004480;28;20015;-78
2023/09/18 07:05:42;;;;;;;;;;;31.30;94.40;;;;;;5001295;28;19914;-77
2023/09/18 07:08:11;;;;;;;;;;;30.90;94.20;;;;;;4999063;28;19913;-77
2023/09/18 07:10:37;;;;;;;;;;;30.60;95.00;;;;;;4999222;28;20023;-77
2023/09/18 07:13:03;;;;;;;;;;;31.10;94.80;;;;;;5003049;28;20272;-77
2023/09/18 07:15:29;;;;;;;;;;;31.50;93.60;;;;;;5000533;28;19905;-76
2023/09/18 07:17:54;;;;;;;;;;;32.00;93.20;;;;;;4999760;28;20458;-78
2023/09/18 07:20:22;;;;;;;;;;;32.80;91.80;;;;;;5000896;28;19997;-77
2023/09/18 07:22:48;;;;;;;;;;;32.60;91.70;;;;;;5000715;28;19916;-78
2023/09/18 07:25:14;;;;;;;;;;;32.80;91.60;;;;;;5001616;28;19913;-78
2023/09/18 07:27:43;;;;;;;;;;;33.00;91.20;;;;;;5000226;28;20274;-78
2023/09/18 07:30:16;;;;;;;;;;;33.50;90.50;;;;;;5003774;28;19917;-79
2023/09/18 07:32:42;;;;;;;;;;;33.70;90.10;;;;;;5001271;28;19912;-81
2023/09/18 07:35:08;;;;;;;;;;;33.20;89.90;;;;;;5002447;28;19913;-79
2023/09/18 07:37:35;;;;;;;;;;;33.50;90.00;;;;;;5001774;28;19913;-78
2023/09/18 07:40:05;;;;;;;;;;;33.70;88.50;;;;;;5003993;28;20293;-78
2023/09/18 07:42:32;;;;;;;;;;;33.80;88.00;;;;;;4999561;28;19928;-77
2023/09/18 07:44:58;;;;;;;;;;;34.10;88.30;;;;;;4978058;28;19916;-78
2023/09/18 07:47:23;;;;;;;;;;;34.70;86.50;;;;;;4999782;28;19910;-78
2023/09/18 07:49:50;;;;;;;;;;;35.30;84.00;;;;;;5002796;28;19939;-77
2023/09/18 07:52:16;;;;;;;;;;;33.50;86.40;;;;;;4999948;28;19913;-77
2023/09/18 07:54:42;;;;;;;;;;;33.10;87.70;;;;;;4999483;28;19916;-79
2023/09/18 07:57:09;;;;;;;;;;;33.80;86.60;;;;;;5001054;28;20357;-79
2023/09/18 07:59:38;;;;;;;;;;;34.70;84.60;;;;;;5003686;28;20542;-78
2023/09/18 08:02:05;;;;;;;;;;;34.90;83.60;;;;;;4997622;28;20321;-83
2023/09/18 08:04:31;;;;;;;;;;;34.00;84.90;;;;;;4993543;28;19993;-83
2023/09/18 08:06:57;;;;;;;;;;;33.50;86.30;;;;;;5001980;28;19921;-78
2023/09/18 08:09:23;;;;;;;;;;;34.00;85.30;;;;;;5003700;28;20280;-77
2023/09/18 08:11:50;;;;;;;;;;;32.90;87.40;;;;;;5003933;28;19921;-78
2023/09/18 08:14:17;;;;;;;;;;;32.40;88.00;;;;;;5008054;28;19964;-81
2023/09/18 08:16:42;;;;;;;;;;;31.20;90.10;;;;;;5012420;28;19912;-80
2023/09/18 08:19:09;;;;;;;;;;;31.50;90.50;;;;;;5011606;28;19936;-79
2023/09/18 08:21:34;;;;;;;;;;;31.50;90.20;;;;;;5016124;23;20436;-79
2023/09/18 08:24:02;;;;;;;;;;;31.40;90.50;;;;;;5008373;28;19988;-78
2023/09/18 08:26:28;;;;;;;;;;;31.10;90.50;;;;;;4996977;28;19913;-79
2023/09/18 08:28:54;;;;;;;;;;;30.50;91.30;;;;;;4985566;28;19940;-78
2023/09/18 08:31:19;;;;;;;;;;;30.10;92.10;;;;;;5004847;28;20581;-78
2023/09/18 08:33:46;;;;;;;;;;;30.90;91.80;;;;;;5000724;28;19916;-79
2023/09/18 08:36:15;;;;;;;;;;;30.70;91.10;;;;;;4993297;28;19980;-81
2023/09/18 08:38:43;;;;;;;;;;;30.50;91.60;;;;;;4987359;28;20011;-80
2023/09/18 08:41:10;;;;;;;;;;;30.00;92.50;;;;;;4986692;28;20044;-79
2023/09/18 08:43:37;;;;;;;;;;;29.70;92.40;;;;;;4985888;28;20596;-79
2023/09/18 08:46:03;;;;;;;;;;;29.40;92.50;;;;;;4998866;28;19913;-79
2023/09/18 08:48:34;;;;;;;;;;;29.70;93.00;;;;;;4994961;28;19928;-81
2023/09/18 08:51:06;;;;;;;;;;;29.40;92.80;;;;;;4985074;28;20023;-78
2023/09/18 08:56:06;;;;;;;;;;;30.50;91.70;;;;;;4999393;28;19931;-78
2023/09/18 08:58:32;;;;;;;;;;;30.40;91.80;;;;;;5003837;28;19975;-78
2023/09/18 09:00:59;;;;;;;;;;;30.60;91.90;;;;;;4996554;28;20023;-79
2023/09/18 09:03:26;;;;;;;;;;;30.90;91.00;;;;;;5005971;28;19917;-79
2023/09/18 09:05:51;;;;;;;;;;;30.80;91.20;;;;;;5005378;28;19920;-79
2023/09/18 09:10:59;;;;;;;;;;;31.10;90.50;;;;;;5320250;22;19929;-81
2023/09/18 09:16:14;;;;;;;;;;;30.80;90.10;;;;;;5847209;23;19906;-82
2023/09/18 09:18:53;;;;;;;;;;;31.70;89.90;;;;;;4980971;28;19914;-81
2023/09/18 09:21:39;;;;;;;;;;;31.80;88.20;;;;;;5385685;22;19920;-80
2023/09/18 09:26:41;;;;;;;;;;;32.00;88.20;;;;;;5910435;22;20646;-81
2023/09/18 09:29:18;;;;;;;;;;;33.10;85.80;;;;;;5120523;23;20045;-82
2023/09/18 09:31:50;;;;;;;;;;;33.60;84.70;;;;;;5189972;23;19922;-82
2023/09/18 09:34:26;;;;;;;;;;;33.60;84.10;;;;;;5013272;28;19898;-80
2023/09/18 09:36:53;;;;;;;;;;;32.60;84.50;;;;;;5012254;28;19923;-80
2023/09/18 09:39:25;;;;;;;;;;;32.30;86.10;;;;;;5005093;28;19914;-80
2023/09/18 09:41:51;;;;;;;;;;;31.90;86.30;;;;;;5413759;22;20024;-79
2023/09/18 09:44:17;;;;;;;;;;;31.60;87.60;;;;;;4998769;28;19901;-79
2023/09/18 09:46:51;;;;;;;;;;;32.20;86.00;;;;;;5175623;23;20392;-80
2023/09/18 09:49:19;;;;;;;;;;;33.30;85.10;;;;;;5000590;28;20404;-79
2023/09/18 09:51:46;;;;;;;;;;;32.20;85.20;;;;;;4986505;28;19928;-79
2023/09/18 09:54:13;;;;;;;;;;;31.70;87.00;;;;;;4983978;28;19953;-80
2023/09/18 09:56:43;;;;;;;;;;;31.70;86.90;;;;;;5001321;28;19909;-79
2023/09/18 09:59:09;;;;;;;;;;;31.40;87.50;;;;;;4983225;28;19952;-78
2023/09/18 10:01:35;;;;;;;;;;;31.00;88.80;;;;;;4988292;28;19947;-78
2023/09/18 10:04:12;;;;;;;;;;;29.70;90.50;;;;;;4987765;28;19913;-79
2023/09/18 10:06:41;;;;;;;;;;;29.00;91.50;;;;;;5114841;22;19921;-79
2023/09/18 10:09:07;;;;;;;;;;;29.50;91.70;;;;;;4980531;28;19916;-79
2023/09/18 10:11:40;;;;;;;;;;;31.10;90.50;;;;;;4997431;28;20526;-79
2023/09/18 10:14:34;;;;;;;;;;;33.20;87.60;;;;;;4999264;28;19909;-79
2023/09/18 10:17:02;;;;;;;;;;;34.00;85.10;;;;;;4980918;28;20732;-79
2023/09/18 10:19:33;;;;;;;;;;;33.20;84.70;;;;;;4997590;28;20016;-79
2023/09/18 10:22:11;;;;;;;;;;;33.60;83.30;;;;;;5002575;28;20015;-79
2023/09/18 10:24:37;;;;;;;;;;;33.30;82.40;;;;;;4996109;28;20280;-79
2023/09/18 10:27:04;;;;;;;;;;;32.50;84.30;;;;;;4998365;28;20127;-79
2023/09/18 10:29:30;;;;;;;;;;;32.30;85.50;;;;;;4990613;28;19916;-79
2023/09/18 10:31:56;;;;;;;;;;;32.40;85.00;;;;;;4997082;28;19906;-79
2023/09/18 10:34:23;;;;;;;;;;;31.20;87.20;;;;;;4994455;28;19935;-77
2023/09/18 10:36:52;;;;;;;;;;;30.00;89.70;;;;;;4998680;28;19909;-78
2023/09/18 10:39:23;;;;;;;;;;;30.00;90.50;;;;;;4990789;28;19922;-79
2023/09/18 10:41:54;;;;;;;;;;;30.30;90.30;;;;;;5009216;28;19914;-81
2023/09/18 10:44:19;;;;;;;;;;;31.40;89.70;;;;;;5000425;28;19944;-81
2023/09/18 10:46:48;;;;;;;;;;;32.70;88.10;;;;;;4989782;28;20403;-79
2023/09/18 10:49:15;;;;;;;;;;;32.60;85.70;;;;;;4986851;28;19921;-79
2023/09/18 10:51:42;;;;;;;;;;;32.40;86.80;;;;;;5007154;28;19921;-79
2023/09/18 10:54:08;;;;;;;;;;;32.70;85.80;;;;;;5006154;28;19956;-80
2023/09/18 10:56:34;;;;;;;;;;;31.80;86.20;;;;;;4984783;28;20396;-79
2023/09/18 10:59:00;;;;;;;;;;;30.40;89.40;;;;;;4994249;28;19910;-79
2023/09/18 11:01:27;;;;;;;;;;;30.20;90.40;;;;;;4998607;28;20403;-78
2023/09/18 11:03:59;;;;;;;;;;;29.60;90.50;;;;;;5005299;28;19932;-79
2023/09/18 11:06:26;;;;;;;;;;;29.10;91.00;;;;;;4987623;28;19925;-79
2023/09/18 11:09:04;;;;;;;;;;;28.40;91.90;;;;;;4996954;28;19916;-79
2023/09/18 11:11:32;;;;;;;;;;;28.50;92.00;;;;;;4988298;28;20317;-80
2023/09/18 11:13:58;;;;;;;;;;;28.50;92.00;;;;;;4998449;28;19917;-79
2023/09/18 11:16:27;;;;;;;;;;;28.60;92.00;;;;;;4998869;28;19905;-80
2023/09/18 11:18:58;;;;;;;;;;;28.40;92.00;;;;;;5008479;28;20367;-79
2023/09/18 11:21:25;;;;;;;;;;;28.20;92.70;;;;;;5004627;28;20329;-80
2023/09/18 11:24:04;;;;;;;;;;;28.10;92.80;;;;;;4989850;28;19921;-79
2023/09/18 11:26:31;;;;;;;;;;;28.20;92.80;;;;;;5000265;28;19909;-78
2023/09/18 11:29:01;;;;;;;;;;;28.10;92.90;;;;;;5001760;28;19909;-80
2023/09/18 11:31:43;;;;;;;;;;;28.00;93.00;;;;;;4988912;28;19917;-80
2023/09/18 11:34:38;;;;;;;;;;;27.70;93.30;;;;;;5004888;28;19956;-78
2023/09/18 11:37:22;;;;;;;;;;;27.40;93.60;;;;;;5006663;28;20809;-80
2023/09/18 11:39:47;;;;;;;;;;;27.60;93.50;;;;;;4994160;28;19912;-79
2023/09/18 11:42:17;;;;;;;;;;;27.40;93.50;;;;;;4995987;28;20093;-80
2023/09/18 11:55:04;;;;;;;;;;;28.10;93.40;;;;;;5619146;22;19920;-80
2023/09/18 12:00:22;;;;;;;;;;;27.80;93.70;;;;;;1319801;26;19929;-79
2023/09/18 12:05:27;;;;;;;;;;;28.10;93.50;;;;;;5368289;22;19920;-80
2023/09/18 12:07:53;;;;;;;;;;;28.20;93.10;;;;;;5038331;28;19999;-80
2023/09/18 12:10:22;;;;;;;;;;;27.80;93.30;;;;;;5189118;23;19936;-80
2023/09/18 12:30:50;;;;;;;;;;;27.90;94.00;;;;;;4975492;28;19941;-77
2023/09/18 12:33:16;;;;;;;;;;;28.00;93.90;;;;;;4982653;28;19910;-77
2023/09/18 12:35:46;;;;;;;;;;;28.30;94.00;;;;;;4971640;28;19997;-80
2023/09/18 12:38:18;;;;;;;;;;;28.50;93.20;;;;;;4985492;28;19906;-77
2023/09/18 12:40:46;;;;;;;;;;;28.40;93.00;;;;;;4976336;28;20435;-77
2023/09/18 12:43:14;;;;;;;;;;;28.10;93.60;;;;;;4992743;28;20110;-78
2023/09/18 12:45:40;;;;;;;;;;;27.90;93.60;;;;;;4988424;28;20000;-78
2023/09/18 12:48:06;;;;;;;;;;;28.00;93.70;;;;;;4979302;28;20444;-78
2023/09/18 12:50:34;;;;;;;;;;;28.00;93.50;;;;;;4967392;28;19910;-76
2023/09/18 12:53:10;;;;;;;;;;;28.20;93.20;;;;;;4975088;28;19913;-77
2023/09/18 12:55:36;;;;;;;;;;;28.20;93.00;;;;;;4973844;28;19926;-75
2023/09/18 12:58:07;;;;;;;;;;;28.00;93.30;;;;;;4976696;28;20397;-75
2023/09/18 13:00:33;;;;;;;;;;;27.90;93.40;;;;;;4971445;28;19917;-77
2023/09/18 13:03:00;;;;;;;;;;;27.80;93.70;;;;;;4983969;28;19913;-77
2023/09/18 13:05:26;;;;;;;;;;;27.80;93.90;;;;;;4990050;28;19910;-78
2023/09/18 13:07:53;;;;;;;;;;;27.90;93.90;;;;;;4972565;28;20046;-74
2023/09/18 13:10:18;;;;;;;;;;;27.90;93.60;;;;;;4984587;28;19913;-75
2023/09/18 13:12:52;;;;;;;;;;;27.80;94.10;;;;;;4972229;28;19912;-75
2023/09/18 13:15:28;;;;;;;;;;;27.80;94.20;;;;;;4990720;28;19916;-76
2023/09/18 13:17:54;;;;;;;;;;;27.80;94.60;;;;;;4972559;28;20009;-75
2023/09/18 13:20:24;;;;;;;;;;;27.70;94.30;;;;;;4988381;28;19917;-79
2023/09/18 13:22:50;;;;;;;;;;;27.70;94.60;;;;;;4969929;28;20507;-75
2023/09/18 13:25:20;;;;;;;;;;;27.70;94.60;;;;;;4970981;28;19928;-76
2023/09/18 13:27:46;;;;;;;;;;;27.60;94.70;;;;;;4973051;28;19952;-77
2023/09/18 13:30:16;;;;;;;;;;;27.70;94.90;;;;;;4975305;28;19922;-76
2023/09/18 13:32:43;;;;;;;;;;;27.80;94.80;;;;;;4973231;28;19961;-76
2023/09/18 13:35:11;;;;;;;;;;;27.70;95.10;;;;;;4987295;28;19949;-76
2023/09/18 13:37:37;;;;;;;;;;;27.60;95.10;;;;;;4978681;28;20333;-69
2023/09/18 13:40:07;;;;;;;;;;;27.40;95.40;;;;;;4968118;28;20329;-69
2023/09/18 13:42:33;;;;;;;;;;;27.10;95.40;;;;;;4968296;28;19905;-66
2023/09/18 13:45:04;;;;;;;;;;;26.90;95.80;;;;;;4970601;28;19957;-69
2023/09/18 13:47:30;;;;;;;;;;;26.80;95.90;;;;;;4980623;28;19910;-68
2023/09/18 13:49:59;;;;;;;;;;;26.80;96.10;;;;;;4978293;28;20466;-69
2023/09/18 13:52:34;;;;;;;;;;;26.80;96.10;;;;;;4974490;28;20364;-69
2023/09/18 13:55:00;;;;;;;;;;;26.70;96.40;;;;;;4982046;28;19906;-68
2023/09/18 13:57:25;;;;;;;;;;;26.70;96.40;;;;;;4970006;28;19913;-67
2023/09/18 13:59:51;;;;;;;;;;;26.60;96.60;;;;;;4969088;28;19909;-68
2023/09/18 14:02:17;;;;;;;;;;;26.60;96.90;;;;;;4965144;28;19910;-68
2023/09/18 14:04:43;;;;;;;;;;;26.60;97.00;;;;;;4976637;28;19914;-68
2023/09/18 14:07:09;;;;;;;;;;;26.60;96.90;;;;;;4969481;28;19906;-69
2023/09/18 14:09:35;;;;;;;;;;;26.50;97.20;;;;;;4968566;28;19914;-67
2023/09/18 14:12:01;;;;;;;;;;;26.40;97.20;;;;;;4967049;28;19906;-69
2023/09/18 14:14:26;;;;;;;;;;;26.40;97.30;;;;;;4983583;28;19913;-67
2023/09/18 14:16:53;;;;;;;;;;;26.40;97.50;;;;;;4974810;28;20345;-67
2023/09/18 14:19:19;;;;;;;;;;;26.30;97.50;;;;;;4963452;28;19917;-68
2023/09/18 14:21:45;;;;;;;;;;;26.30;97.40;;;;;;4981557;28;19914;-67
2023/09/18 14:24:10;;;;;;;;;;;26.20;97.70;;;;;;4966336;28;19910;-68
2023/09/18 14:26:40;;;;;;;;;;;26.10;97.90;;;;;;4960262;28;19910;-62
2023/09/18 14:29:07;;;;;;;;;;;26.00;97.90;;;;;;4981806;28;20562;-62
2023/09/18 14:31:32;;;;;;;;;;;26.00;98.30;;;;;;4977405;28;19959;-62
2023/09/18 14:34:00;;;;;;;;;;;26.00;98.30;;;;;;4972778;28;19909;-67
2023/09/18 14:36:26;;;;;;;;;;;26.10;98.20;;;;;;4966096;28;19910;-67
2023/09/18 14:38:52;;;;;;;;;;;26.20;98.30;;;;;;4965908;28;19968;-65
2023/09/18 14:41:21;;;;;;;;;;;26.10;98.40;;;;;;4970636;28;19928;-66
2023/09/18 14:43:47;;;;;;;;;;;25.90;98.60;;;;;;4986004;28;19968;-65
2023/09/18 14:46:13;;;;;;;;;;;25.70;98.90;;;;;;4968800;28;19970;-66
2023/09/18 14:48:39;;;;;;;;;;;25.70;99.10;;;;;;4966907;28;19914;-66
2023/09/18 14:51:06;;;;;;;;;;;25.60;99.20;;;;;;4971520;28;19921;-66
2023/09/18 14:53:33;;;;;;;;;;;25.50;99.50;;;;;;4959584;28;19909;-67
2023/09/18 14:55:59;;;;;;;;;;;25.50;99.50;;;;;;4970270;28;19906;-67
2023/09/18 14:58:25;;;;;;;;;;;25.60;99.30;;;;;;4964218;28;19906;-67
2023/09/18 15:00:52;;;;;;;;;;;25.70;99.00;;;;;;4964096;28;20399;-66